General Aviation Weather

Text Reports

Enter one or more of the following location identifiers separated by a space:

Zip Code, Four-Character ICAO or Three-Character IATA airport codes.

METAR - Aviation Routine Weather Report
KVCV - Victorville, California
Updated at 12:55 AM GMT on July 28, 2016 (5:55 PM PDT):
METAR KVCV 280055Z AUTO 29015G20KT 10SM SCT090 39/07 A2992 RMK AO2
TAF - Terminal Area Forecast
KVCV - Victorville, California
Updated at 12:55 AM GMT on July 28, 2016 (5:55 PM PDT):
No TAF is currently available for this location.
Decoded:
No decoded TAF is available.
PIREP - Pilot Weather Report
KVCV - Victorville, California
Updated at 12:55 AM GMT on July 28, 2016 (5:55 PM PDT):
No PIREP is currently available for this location.
AIRMET - Airmens Meteorological Information
KVCV - Victorville, California
Updated at 12:55 AM GMT on July 28, 2016 (5:55 PM PDT):
No AIRMET is currently available for this location.
SIGMET - Significant Meteorological Information
KVCV - Victorville, California
Updated at 12:55 AM GMT on July 28, 2016 (5:55 PM PDT):
No SIGMET is currently available for this location.
NOTAM - Notice to Airmen
KVCV - Victorville, California
Updated at 12:55 AM GMT on July 28, 2016 (5:55 PM PDT):
No NOTAM is currently available for this location.
Forecast Area
KVCV - Victorville, California
Updated at 12:55 AM GMT on July 28, 2016 (5:55 PM PDT):
No NOTAM is currently available for this location.
Aviation Weather Maps